Regatta — V7DM3 — position and weather

sailwx.info

Track history (hours):
 
Tides and Currents Weather Stations Pressure Air Temp Water Temp Dewpoint Dewpoint Depression Visibility Wind Speed Wind Dir Waves Ship Positions

Regatta

Last reported at 2019-Jan-20 12:06 UTC. Time now 2019-Jan-23 18:49 UTC.
Position S 40°39' E 147°49'.

Length 180 m; draft 5.7 m.

Type: Passenger vessel. MMSI: 538001664.

Date/timePositionNaut miles runAvg speedWind from/ knotsBaromVisibWave heightAir tempDewpointWater temp
2019-Jan-20 12:06S 40°39' E 147°49'417.4
2019-Jan-20 11:51S 40°39' E 147°43'616.8
2019-Jan-20 11:30S 40°41' E 147°36'917.5
2019-Jan-20 11:00S 40°43' E 147°25'917.8
2019-Jan-20 10:30S 40°45' E 147°14'917.9
2019-Jan-20 10:00S 40°48' E 147°02'918.0
2019-Jan-20 09:30S 40°50' E 146°51'918.0
2019-Jan-20 09:00S 40°52' E 146°39'918.1
2019-Jan-20 08:30S 40°55' E 146°28'918.1
2019-Jan-20 08:00S 40°57' E 146°16'918.2
2019-Jan-20 07:30S 40°59' E 146°04'5 0.5
2019-Jan-19 20:05S 41°01' E 145°58'1 9.2
2019-Jan-19 19:59S 41°00' E 145°58'  
2019-Jan-17 12:02S 38°37' E 148°24'118.6
2019-Jan-17 11:58S 38°36' E 148°26'1018.7
2019-Jan-17 11:26S 38°30' E 148°36'817.8
2019-Jan-17 11:00S 38°26' E 148°45'918.1
2019-Jan-17 10:30S 38°21' E 148°54'2218.3
2019-Jan-17 09:17S 38°09' E 149°18'5617.5
2019-Jan-17 06:06S 37°31' E 150°09'32 2.9
2019-Jan-16 19:07S 36°60' E 150°03'14016.1
2019-Jan-16 10:27S 34°52' E 151°16'1817.9
2019-Jan-16 09:25S 34°34' E 151°20'2917.7
2019-Jan-16 07:46S 34°05' E 151°25'518.3
2019-Jan-16 07:30S 34°01' E 151°24'917.7
2019-Jan-16 07:00S 33°53' E 151°20'4 7.8
2019-Jan-16 06:30S 33°51' E 151°15'3 3.1
2019-Jan-16 05:27S 33°52' E 151°11'0 0.0
2019-Jan-16 04:51S 33°52' E 151°11'0 0.0
2019-Jan-16 04:15S 33°52' E 151°11'0 0.0
2019-Jan-16 03:57S 33°52' E 151°11'0 0.0
2019-Jan-16 03:27S 33°52' E 151°11'0 0.0
2019-Jan-16 02:57S 33°52' E 151°11'0 0.0
2019-Jan-16 02:27S 33°52' E 151°11'0 0.0
2019-Jan-16 01:57S 33°52' E 151°11'0 0.0
2019-Jan-16 01:03S 33°52' E 151°11'0 0.0
2019-Jan-16 00:48S 33°52' E 151°11'0 0.0
2019-Jan-16 00:09S 33°52' E 151°11'0 0.0
2019-Jan-15 19:42S 33°52' E 151°11'0 0.0
2019-Jan-15 19:24S 33°52' E 151°11'1 1.3
2019-Jan-15 18:59S 33°52' E 151°12'2 4.7
2019-Jan-15 18:30S 33°51' E 151°15'5 9.2
2019-Jan-15 18:01S 33°50' E 151°20'612.9
2019-Jan-15 17:30S 33°56' E 151°24'816.8
2019-Jan-15 17:00S 34°04' E 151°24'2916.7
2019-Jan-15 15:17S 34°33' E 151°20'6717.0
2019-Jan-15 11:22S 35°36' E 150°55'149 6.6
2019-Jan-14 12:49S 37°55' E 149°47'4 9.2
2019-Jan-14 12:23S 37°57' E 149°43'4 8.1
2019-Jan-14 11:57S 37°59' E 149°39'5 8.8
2019-Jan-14 11:24S 38°02' E 149°34'3 8.3
2019-Jan-14 11:00S 38°04' E 149°31'18 8.9
2019-Jan-14 09:01S 38°14' E 149°12'010.2
2019-Jan-14 09:00S 38°14' E 149°12'7 8.9
2019-Jan-14 08:14S 38°18' E 149°05'2 8.9
2019-Jan-14 07:59S 38°19' E 149°03'6 9.6
2019-Jan-14 07:21S 38°23' E 148°57'6 9.1
2019-Jan-14 06:42S 38°27' E 148°51'2 9.2
2019-Jan-14 06:29S 38°28' E 148°49'8 9.1
2019-Jan-14 05:37S 38°32' E 148°40'5 8.9
2019-Jan-14 05:06S 38°35' E 148°36'1 9.2
2019-Jan-14 04:59S 38°36' E 148°35'8 8.9
2019-Jan-14 04:07S 38°40' E 148°27'1 9.3
2019-Jan-14 03:59S 38°41' E 148°25'6 8.9
2019-Jan-14 03:21S 38°44' E 148°19'121 8.8
2019-Jan-13 13:31S 40°12' E 146°30'1 8.6
2019-Jan-13 13:24S 40°12' E 146°30'15 9.0
2019-Jan-13 11:44S 40°26' E 146°21'8 8.6
2019-Jan-13 10:48S 40°33' E 146°16'3 8.9
2019-Jan-13 10:28S 40°36' E 146°14'5 8.9
2019-Jan-13 09:54S 40°40' E 146°11'25 8.9
2019-Jan-13 07:04S 41°03' E 145°56'1 6.3
2019-Jan-13 06:53S 41°03' E 145°55'2 0.2
2019-Jan-12 19:54S 41°02' E 145°57'  
Track history (hours):
 
Tides and Currents Weather Stations Pressure Air Temp Water Temp Dewpoint Dewpoint Depression Visibility Wind Speed Wind Dir Waves Ship Positions

Regatta

Last reported at 2019-Jan-20 12:06 UTC. Time now 2019-Jan-23 18:49 UTC.
Position S 40°39' E 147°49'.

Length 180 m; draft 5.7 m.

Type: Passenger vessel. MMSI: 538001664.

Date/timePositionNaut miles runAvg speedWind from/ knotsBaromVisibWave heightAir tempDewpointWater temp
2019-Jan-20 12:06S 40°39' E 147°49'417.4
2019-Jan-20 11:51S 40°39' E 147°43'616.8
2019-Jan-20 11:30S 40°41' E 147°36'917.5
2019-Jan-20 11:00S 40°43' E 147°25'917.8
2019-Jan-20 10:30S 40°45' E 147°14'917.9
2019-Jan-20 10:00S 40°48' E 147°02'918.0
2019-Jan-20 09:30S 40°50' E 146°51'918.0
2019-Jan-20 09:00S 40°52' E 146°39'918.1
2019-Jan-20 08:30S 40°55' E 146°28'918.1
2019-Jan-20 08:00S 40°57' E 146°16'918.2
2019-Jan-20 07:30S 40°59' E 146°04'5 0.5
2019-Jan-19 20:05S 41°01' E 145°58'1 9.2
2019-Jan-19 19:59S 41°00' E 145°58'  
2019-Jan-17 12:02S 38°37' E 148°24'118.6
2019-Jan-17 11:58S 38°36' E 148°26'1018.7
2019-Jan-17 11:26S 38°30' E 148°36'817.8
2019-Jan-17 11:00S 38°26' E 148°45'918.1
2019-Jan-17 10:30S 38°21' E 148°54'2218.3
2019-Jan-17 09:17S 38°09' E 149°18'5617.5
2019-Jan-17 06:06S 37°31' E 150°09'32 2.9
2019-Jan-16 19:07S 36°60' E 150°03'14016.1
2019-Jan-16 10:27S 34°52' E 151°16'1817.9
2019-Jan-16 09:25S 34°34' E 151°20'2917.7
2019-Jan-16 07:46S 34°05' E 151°25'518.3
2019-Jan-16 07:30S 34°01' E 151°24'917.7
2019-Jan-16 07:00S 33°53' E 151°20'4 7.8
2019-Jan-16 06:30S 33°51' E 151°15'3 3.1
2019-Jan-16 05:27S 33°52' E 151°11'0 0.0
2019-Jan-16 04:51S 33°52' E 151°11'0 0.0
2019-Jan-16 04:15S 33°52' E 151°11'0 0.0
2019-Jan-16 03:57S 33°52' E 151°11'0 0.0
2019-Jan-16 03:27S 33°52' E 151°11'0 0.0
2019-Jan-16 02:57S 33°52' E 151°11'0 0.0
2019-Jan-16 02:27S 33°52' E 151°11'0 0.0
2019-Jan-16 01:57S 33°52' E 151°11'0 0.0
2019-Jan-16 01:03S 33°52' E 151°11'0 0.0
2019-Jan-16 00:48S 33°52' E 151°11'0 0.0
2019-Jan-16 00:09S 33°52' E 151°11'0 0.0
2019-Jan-15 19:42S 33°52' E 151°11'0 0.0
2019-Jan-15 19:24S 33°52' E 151°11'1 1.3
2019-Jan-15 18:59S 33°52' E 151°12'2 4.7
2019-Jan-15 18:30S 33°51' E 151°15'5 9.2
2019-Jan-15 18:01S 33°50' E 151°20'612.9
2019-Jan-15 17:30S 33°56' E 151°24'816.8
2019-Jan-15 17:00S 34°04' E 151°24'2916.7
2019-Jan-15 15:17S 34°33' E 151°20'6717.0
2019-Jan-15 11:22S 35°36' E 150°55'149 6.6
2019-Jan-14 12:49S 37°55' E 149°47'4 9.2
2019-Jan-14 12:23S 37°57' E 149°43'4 8.1
2019-Jan-14 11:57S 37°59' E 149°39'5 8.8
2019-Jan-14 11:24S 38°02' E 149°34'3 8.3
2019-Jan-14 11:00S 38°04' E 149°31'18 8.9
2019-Jan-14 09:01S 38°14' E 149°12'010.2
2019-Jan-14 09:00S 38°14' E 149°12'7 8.9
2019-Jan-14 08:14S 38°18' E 149°05'2 8.9
2019-Jan-14 07:59S 38°19' E 149°03'6 9.6
2019-Jan-14 07:21S 38°23' E 148°57'6 9.1
2019-Jan-14 06:42S 38°27' E 148°51'2 9.2
2019-Jan-14 06:29S 38°28' E 148°49'8 9.1
2019-Jan-14 05:37S 38°32' E 148°40'5 8.9
2019-Jan-14 05:06S 38°35' E 148°36'1 9.2
2019-Jan-14 04:59S 38°36' E 148°35'8 8.9
2019-Jan-14 04:07S 38°40' E 148°27'1 9.3
2019-Jan-14 03:59S 38°41' E 148°25'6 8.9
2019-Jan-14 03:21S 38°44' E 148°19'121 8.8
2019-Jan-13 13:31S 40°12' E 146°30'1 8.6
2019-Jan-13 13:24S 40°12' E 146°30'15 9.0
2019-Jan-13 11:44S 40°26' E 146°21'8 8.6
2019-Jan-13 10:48S 40°33' E 146°16'3 8.9
2019-Jan-13 10:28S 40°36' E 146°14'5 8.9
2019-Jan-13 09:54S 40°40' E 146°11'25 8.9
2019-Jan-13 07:04S 41°03' E 145°56'1 6.3
2019-Jan-13 06:53S 41°03' E 145°55'2 0.2
2019-Jan-12 19:54S 41°02' E 145°57'  

Dump ship's entire track history